sensor_id;sensor_type;location;lat;lon;timestamp;P1;durP1;ratioP1;P2;durP2;ratioP2
56457;SDS011;42360;42.918;12.366;2023-01-20T00:00:34;0.65;;;0.45;;
56457;SDS011;42360;42.918;12.366;2023-01-20T00:03:00;0.30;;;0.30;;
56457;SDS011;42360;42.918;12.366;2023-01-20T00:05:25;0.38;;;0.38;;
56457;SDS011;42360;42.918;12.366;2023-01-20T00:07:51;0.20;;;0.20;;
56457;SDS011;42360;42.918;12.366;2023-01-20T00:10:16;0.60;;;0.60;;
56457;SDS011;42360;42.918;12.366;2023-01-20T00:12:42;1.05;;;0.80;;
56457;SDS011;42360;42.918;12.366;2023-01-20T00:15:08;0.43;;;0.43;;
56457;SDS011;42360;42.918;12.366;2023-01-20T00:17:34;1.58;;;0.68;;
56457;SDS011;42360;42.918;12.366;2023-01-20T00:20:00;3.30;;;0.50;;
56457;SDS011;42360;42.918;12.366;2023-01-20T00:22:25;0.30;;;0.30;;
56457;SDS011;42360;42.918;12.366;2023-01-20T00:24:51;0.65;;;0.60;;
56457;SDS011;42360;42.918;12.366;2023-01-20T00:27:16;0.20;;;0.20;;
56457;SDS011;42360;42.918;12.366;2023-01-20T00:29:42;0.95;;;0.65;;
56457;SDS011;42360;42.918;12.366;2023-01-20T00:32:09;0.77;;;0.77;;
56457;SDS011;42360;42.918;12.366;2023-01-20T00:34:35;0.47;;;0.47;;
56457;SDS011;42360;42.918;12.366;2023-01-20T00:37:01;0.45;;;0.45;;
56457;SDS011;42360;42.918;12.366;2023-01-20T00:39:26;0.38;;;0.38;;
56457;SDS011;42360;42.918;12.366;2023-01-20T00:41:52;0.40;;;0.40;;
56457;SDS011;42360;42.918;12.366;2023-01-20T00:44:17;1.20;;;0.68;;
56457;SDS011;42360;42.918;12.366;2023-01-20T00:46:43;0.52;;;0.50;;
56457;SDS011;42360;42.918;12.366;2023-01-20T00:49:09;0.80;;;0.80;;
56457;SDS011;42360;42.918;12.366;2023-01-20T00:51:34;1.02;;;0.93;;
56457;SDS011;42360;42.918;12.366;2023-01-20T00:54:00;0.75;;;0.43;;
56457;SDS011;42360;42.918;12.366;2023-01-20T00:56:25;0.38;;;0.38;;
56457;SDS011;42360;42.918;12.366;2023-01-20T00:58:51;0.40;;;0.40;;
56457;SDS011;42360;42.918;12.366;2023-01-20T01:01:19;6.22;;;0.93;;
56457;SDS011;42360;42.918;12.366;2023-01-20T01:03:45;0.60;;;0.60;;
56457;SDS011;42360;42.918;12.366;2023-01-20T01:06:15;0.60;;;0.57;;
56457;SDS011;42360;42.918;12.366;2023-01-20T01:08:42;1.20;;;0.65;;
56457;SDS011;42360;42.918;12.366;2023-01-20T01:11:08;0.47;;;0.47;;
56457;SDS011;42360;42.918;12.366;2023-01-20T01:13:34;0.47;;;0.47;;
56457;SDS011;42360;42.918;12.366;2023-01-20T01:16:02;1.27;;;0.57;;
56457;SDS011;42360;42.918;12.366;2023-01-20T01:18:34;0.47;;;0.47;;
56457;SDS011;42360;42.918;12.366;2023-01-20T01:21:04;0.52;;;0.52;;
56457;SDS011;42360;42.918;12.366;2023-01-20T01:23:34;0.45;;;0.45;;
56457;SDS011;42360;42.918;12.366;2023-01-20T01:26:00;1.13;;;0.90;;
56457;SDS011;42360;42.918;12.366;2023-01-20T01:28:25;0.25;;;0.25;;
56457;SDS011;42360;42.918;12.366;2023-01-20T01:30:51;1.63;;;0.82;;
56457;SDS011;42360;42.918;12.366;2023-01-20T01:33:16;1.20;;;1.13;;
56457;SDS011;42360;42.918;12.366;2023-01-20T01:35:42;1.42;;;0.60;;
56457;SDS011;42360;42.918;12.366;2023-01-20T01:38:07;2.70;;;1.20;;
56457;SDS011;42360;42.918;12.366;2023-01-20T01:40:33;0.20;;;0.20;;
56457;SDS011;42360;42.918;12.366;2023-01-20T01:42:59;0.98;;;0.75;;
56457;SDS011;42360;42.918;12.366;2023-01-20T01:45:26;0.57;;;0.50;;
56457;SDS011;42360;42.918;12.366;2023-01-20T01:47:55;0.30;;;0.30;;
56457;SDS011;42360;42.918;12.366;2023-01-20T01:50:47;0.35;;;0.35;;
56457;SDS011;42360;42.918;12.366;2023-01-20T01:53:25;2.97;;;0.90;;
56457;SDS011;42360;42.918;12.366;2023-01-20T01:55:53;0.70;;;0.70;;
56457;SDS011;42360;42.918;12.366;2023-01-20T01:58:23;1.20;;;0.70;;
56457;SDS011;42360;42.918;12.366;2023-01-20T02:00:51;0.77;;;0.68;;
56457;SDS011;42360;42.918;12.366;2023-01-20T02:03:17;1.60;;;1.50;;
56457;SDS011;42360;42.918;12.366;2023-01-20T02:05:43;3.17;;;1.95;;
56457;SDS011;42360;42.918;12.366;2023-01-20T02:08:10;1.38;;;0.70;;
56457;SDS011;42360;42.918;12.366;2023-01-20T02:10:35;2.85;;;1.42;;
56457;SDS011;42360;42.918;12.366;2023-01-20T02:13:01;0.82;;;0.80;;
56457;SDS011;42360;42.918;12.366;2023-01-20T02:15:28;1.33;;;1.10;;
56457;SDS011;42360;42.918;12.366;2023-01-20T02:18:21;1.67;;;1.25;;
56457;SDS011;42360;42.918;12.366;2023-01-20T02:32:54;3.70;;;1.85;;
56457;SDS011;42360;42.918;12.366;2023-01-20T02:41:07;1.80;;;1.25;;
56457;SDS011;42360;42.918;12.366;2023-01-20T02:44:23;1.42;;;1.27;;
56457;SDS011;42360;42.918;12.366;2023-01-20T02:46:31;1.95;;;1.00;;
56457;SDS011;42360;42.918;12.366;2023-01-20T02:49:20;7.72;;;1.88;;
56457;SDS011;42360;42.918;12.366;2023-01-20T02:51:51;2.25;;;1.35;;
56457;SDS011;42360;42.918;12.366;2023-01-20T02:54:21;1.55;;;1.42;;
56457;SDS011;42360;42.918;12.366;2023-01-20T02:56:47;1.88;;;1.10;;
56457;SDS011;42360;42.918;12.366;2023-01-20T02:59:15;3.50;;;1.50;;
56457;SDS011;42360;42.918;12.366;2023-01-20T03:02:02;1.38;;;1.08;;
56457;SDS011;42360;42.918;12.366;2023-01-20T03:04:32;1.13;;;0.95;;
56457;SDS011;42360;42.918;12.366;2023-01-20T03:07:02;1.88;;;1.40;;
56457;SDS011;42360;42.918;12.366;2023-01-20T03:09:29;1.20;;;1.10;;
56457;SDS011;42360;42.918;12.366;2023-01-20T03:12:15;1.30;;;1.20;;
56457;SDS011;42360;42.918;12.366;2023-01-20T03:14:43;1.45;;;1.10;;
56457;SDS011;42360;42.918;12.366;2023-01-20T03:17:08;2.42;;;1.48;;
56457;SDS011;42360;42.918;12.366;2023-01-20T03:19:34;1.38;;;1.20;;
56457;SDS011;42360;42.918;12.366;2023-01-20T03:22:00;1.83;;;1.13;;
56457;SDS011;42360;42.918;12.366;2023-01-20T03:24:26;1.90;;;1.65;;
56457;SDS011;42360;42.918;12.366;2023-01-20T03:26:54;1.73;;;1.30;;
56457;SDS011;42360;42.918;12.366;2023-01-20T03:29:19;2.28;;;1.70;;
56457;SDS011;42360;42.918;12.366;2023-01-20T03:31:46;2.05;;;1.15;;
56457;SDS011;42360;42.918;12.366;2023-01-20T03:34:14;2.55;;;1.90;;
56457;SDS011;42360;42.918;12.366;2023-01-20T03:36:42;2.28;;;1.45;;
56457;SDS011;42360;42.918;12.366;2023-01-20T03:39:08;2.90;;;1.75;;
56457;SDS011;42360;42.918;12.366;2023-01-20T03:41:44;2.17;;;1.30;;
56457;SDS011;42360;42.918;12.366;2023-01-20T03:47:16;1.80;;;1.17;;
56457;SDS011;42360;42.918;12.366;2023-01-20T03:52:41;2.03;;;0.93;;
56457;SDS011;42360;42.918;12.366;2023-01-20T03:55:14;2.53;;;1.13;;
56457;SDS011;42360;42.918;12.366;2023-01-20T03:57:56;1.40;;;0.88;;
56457;SDS011;42360;42.918;12.366;2023-01-20T04:00:27;0.93;;;0.90;;
56457;SDS011;42360;42.918;12.366;2023-01-20T04:02:55;1.48;;;0.90;;
56457;SDS011;42360;42.918;12.366;2023-01-20T04:05:23;2.63;;;1.25;;
56457;SDS011;42360;42.918;12.366;2023-01-20T04:07:49;1.55;;;0.80;;
56457;SDS011;42360;42.918;12.366;2023-01-20T04:10:16;1.63;;;0.85;;
56457;SDS011;42360;42.918;12.366;2023-01-20T04:12:41;2.03;;;1.83;;
56457;SDS011;42360;42.918;12.366;2023-01-20T04:15:07;1.00;;;0.82;;
56457;SDS011;42360;42.918;12.366;2023-01-20T04:17:34;0.63;;;0.60;;
56457;SDS011;42360;42.918;12.366;2023-01-20T04:20:02;2.53;;;0.55;;
56457;SDS011;42360;42.918;12.366;2023-01-20T04:25:26;0.85;;;0.50;;
56457;SDS011;42360;42.918;12.366;2023-01-20T04:27:53;1.80;;;0.55;;
56457;SDS011;42360;42.918;12.366;2023-01-20T04:30:19;0.73;;;0.50;;
56457;SDS011;42360;42.918;12.366;2023-01-20T04:32:44;1.35;;;0.30;;
56457;SDS011;42360;42.918;12.366;2023-01-20T04:35:14;2.78;;;0.47;;
56457;SDS011;42360;42.918;12.366;2023-01-20T04:40:07;4.18;;;0.70;;
56457;SDS011;42360;42.918;12.366;2023-01-20T04:42:34;1.55;;;0.50;;
56457;SDS011;42360;42.918;12.366;2023-01-20T04:44:59;0.38;;;0.38;;
56457;SDS011;42360;42.918;12.366;2023-01-20T04:47:27;0.60;;;0.60;;
56457;SDS011;42360;42.918;12.366;2023-01-20T04:49:54;0.70;;;0.70;;
56457;SDS011;42360;42.918;12.366;2023-01-20T04:52:20;1.00;;;0.90;;
56457;SDS011;42360;42.918;12.366;2023-01-20T04:54:45;0.80;;;0.55;;
56457;SDS011;42360;42.918;12.366;2023-01-20T04:57:11;1.00;;;0.75;;
56457;SDS011;42360;42.918;12.366;2023-01-20T04:59:36;2.60;;;1.38;;
56457;SDS011;42360;42.918;12.366;2023-01-20T05:02:02;1.35;;;1.25;;
56457;SDS011;42360;42.918;12.366;2023-01-20T05:04:27;2.33;;;1.33;;
56457;SDS011;42360;42.918;12.366;2023-01-20T05:06:53;0.80;;;0.80;;
56457;SDS011;42360;42.918;12.366;2023-01-20T05:09:18;1.40;;;1.27;;
56457;SDS011;42360;42.918;12.366;2023-01-20T05:11:44;0.80;;;0.80;;
56457;SDS011;42360;42.918;12.366;2023-01-20T05:14:10;3.50;;;1.40;;
56457;SDS011;42360;42.918;12.366;2023-01-20T05:16:36;0.93;;;0.90;;
56457;SDS011;42360;42.918;12.366;2023-01-20T05:19:02;5.22;;;1.35;;
56457;SDS011;42360;42.918;12.366;2023-01-20T05:21:27;1.75;;;1.20;;
56457;SDS011;42360;42.918;12.366;2023-01-20T05:23:54;1.10;;;1.00;;
56457;SDS011;42360;42.918;12.366;2023-01-20T05:26:24;1.33;;;1.17;;
56457;SDS011;42360;42.918;12.366;2023-01-20T05:28:50;1.83;;;1.55;;
56457;SDS011;42360;42.918;12.366;2023-01-20T05:31:15;2.00;;;1.50;;
56457;SDS011;42360;42.918;12.366;2023-01-20T05:33:41;1.58;;;1.27;;
56457;SDS011;42360;42.918;12.366;2023-01-20T05:36:08;1.15;;;1.05;;
56457;SDS011;42360;42.918;12.366;2023-01-20T05:38:35;2.05;;;1.55;;
56457;SDS011;42360;42.918;12.366;2023-01-20T05:41:04;1.63;;;1.52;;
56457;SDS011;42360;42.918;12.366;2023-01-20T05:43:31;2.90;;;1.60;;
56457;SDS011;42360;42.918;12.366;2023-01-20T05:45:57;1.25;;;1.10;;
56457;SDS011;42360;42.918;12.366;2023-01-20T05:48:23;2.05;;;1.20;;
56457;SDS011;42360;42.918;12.366;2023-01-20T05:50:49;0.98;;;0.95;;
56457;SDS011;42360;42.918;12.366;2023-01-20T05:53:15;1.00;;;0.90;;
56457;SDS011;42360;42.918;12.366;2023-01-20T05:55:41;2.75;;;1.30;;
56457;SDS011;42360;42.918;12.366;2023-01-20T05:58:07;1.67;;;1.27;;
56457;SDS011;42360;42.918;12.366;2023-01-20T06:00:32;3.15;;;1.40;;
56457;SDS011;42360;42.918;12.366;2023-01-20T06:02:58;3.42;;;1.25;;
56457;SDS011;42360;42.918;12.366;2023-01-20T06:05:24;4.15;;;1.45;;
56457;SDS011;42360;42.918;12.366;2023-01-20T06:07:50;0.90;;;0.90;;
56457;SDS011;42360;42.918;12.366;2023-01-20T06:10:16;2.00;;;1.48;;
56457;SDS011;42360;42.918;12.366;2023-01-20T06:12:42;1.50;;;1.20;;
56457;SDS011;42360;42.918;12.366;2023-01-20T06:15:07;2.30;;;0.95;;
56457;SDS011;42360;42.918;12.366;2023-01-20T06:17:34;2.80;;;1.48;;
56457;SDS011;42360;42.918;12.366;2023-01-20T06:19:59;2.45;;;1.40;;
56457;SDS011;42360;42.918;12.366;2023-01-20T06:22:25;1.67;;;1.48;;
56457;SDS011;42360;42.918;12.366;2023-01-20T06:24:51;4.05;;;1.60;;
56457;SDS011;42360;42.918;12.366;2023-01-20T06:27:17;7.32;;;4.07;;
56457;SDS011;42360;42.918;12.366;2023-01-20T06:29:43;6.50;;;3.72;;
56457;SDS011;42360;42.918;12.366;2023-01-20T06:32:09;6.00;;;4.80;;
56457;SDS011;42360;42.918;12.366;2023-01-20T06:34:35;13.52;;;11.23;;
56457;SDS011;42360;42.918;12.366;2023-01-20T06:37:01;15.60;;;12.57;;
56457;SDS011;42360;42.918;12.366;2023-01-20T06:39:27;9.98;;;7.35;;
56457;SDS011;42360;42.918;12.366;2023-01-20T06:41:55;6.78;;;4.82;;
56457;SDS011;42360;42.918;12.366;2023-01-20T06:44:21;3.55;;;3.22;;
56457;SDS011;42360;42.918;12.366;2023-01-20T06:46:47;3.90;;;3.00;;
56457;SDS011;42360;42.918;12.366;2023-01-20T06:49:12;4.35;;;2.35;;
56457;SDS011;42360;42.918;12.366;2023-01-20T06:51:38;3.17;;;2.75;;
56457;SDS011;42360;42.918;12.366;2023-01-20T06:54:04;4.05;;;2.70;;
56457;SDS011;42360;42.918;12.366;2023-01-20T06:56:29;5.43;;;2.45;;
56457;SDS011;42360;42.918;12.366;2023-01-20T06:58:55;3.53;;;2.70;;
56457;SDS011;42360;42.918;12.366;2023-01-20T07:01:21;5.78;;;3.67;;
56457;SDS011;42360;42.918;12.366;2023-01-20T07:03:51;3.80;;;2.97;;
56457;SDS011;42360;42.918;12.366;2023-01-20T07:08:51;3.28;;;2.10;;
56457;SDS011;42360;42.918;12.366;2023-01-20T07:11:17;2.22;;;1.60;;
56457;SDS011;42360;42.918;12.366;2023-01-20T07:13:43;3.45;;;1.95;;
56457;SDS011;42360;42.918;12.366;2023-01-20T07:16:09;4.80;;;1.55;;
56457;SDS011;42360;42.918;12.366;2023-01-20T07:18:35;4.05;;;3.20;;
56457;SDS011;42360;42.918;12.366;2023-01-20T07:21:01;8.07;;;5.30;;
56457;SDS011;42360;42.918;12.366;2023-01-20T07:23:27;6.60;;;4.45;;
56457;SDS011;42360;42.918;12.366;2023-01-20T07:25:59;5.25;;;3.92;;
56457;SDS011;42360;42.918;12.366;2023-01-20T08:24:55;2.33;;;2.10;;
56457;SDS011;42360;42.918;12.366;2023-01-20T08:27:21;3.30;;;1.63;;
56457;SDS011;42360;42.918;12.366;2023-01-20T08:29:46;3.15;;;2.08;;
56457;SDS011;42360;42.918;12.366;2023-01-20T08:32:12;2.63;;;2.08;;
56457;SDS011;42360;42.918;12.366;2023-01-20T08:34:38;3.85;;;1.88;;
56457;SDS011;42360;42.918;12.366;2023-01-20T08:37:03;1.55;;;1.20;;
56457;SDS011;42360;42.918;12.366;2023-01-20T08:39:29;2.15;;;1.95;;
56457;SDS011;42360;42.918;12.366;2023-01-20T08:41:54;1.63;;;1.45;;
56457;SDS011;42360;42.918;12.366;2023-01-20T08:44:20;1.75;;;1.60;;
56457;SDS011;42360;42.918;12.366;2023-01-20T08:46:45;2.17;;;1.40;;
56457;SDS011;42360;42.918;12.366;2023-01-20T08:49:13;2.38;;;1.60;;
56457;SDS011;42360;42.918;12.366;2023-01-20T08:51:39;2.50;;;1.40;;
56457;SDS011;42360;42.918;12.366;2023-01-20T08:54:05;2.78;;;1.80;;
56457;SDS011;42360;42.918;12.366;2023-01-20T08:56:31;1.67;;;1.40;;
56457;SDS011;42360;42.918;12.366;2023-01-20T08:58:58;2.30;;;1.67;;
56457;SDS011;42360;42.918;12.366;2023-01-20T09:01:28;3.67;;;1.77;;
56457;SDS011;42360;42.918;12.366;2023-01-20T09:03:55;2.88;;;2.55;;
56457;SDS011;42360;42.918;12.366;2023-01-20T09:06:21;3.20;;;1.70;;
56457;SDS011;42360;42.918;12.366;2023-01-20T09:08:47;3.50;;;2.53;;
56457;SDS011;42360;42.918;12.366;2023-01-20T09:11:16;12.93;;;7.38;;
56457;SDS011;42360;42.918;12.366;2023-01-20T09:13:43;4.32;;;3.58;;
56457;SDS011;42360;42.918;12.366;2023-01-20T09:16:16;2.47;;;2.17;;
56457;SDS011;42360;42.918;12.366;2023-01-20T09:18:42;9.00;;;5.43;;
56457;SDS011;42360;42.918;12.366;2023-01-20T09:21:08;5.50;;;3.33;;
56457;SDS011;42360;42.918;12.366;2023-01-20T09:23:35;4.32;;;3.50;;
56457;SDS011;42360;42.918;12.366;2023-01-20T09:26:03;6.38;;;4.78;;
56457;SDS011;42360;42.918;12.366;2023-01-20T09:28:29;2.88;;;2.33;;
56457;SDS011;42360;42.918;12.366;2023-01-20T09:30:58;4.75;;;2.95;;
56457;SDS011;42360;42.918;12.366;2023-01-20T09:33:25;2.17;;;1.98;;
56457;SDS011;42360;42.918;12.366;2023-01-20T09:35:56;4.25;;;3.88;;
56457;SDS011;42360;42.918;12.366;2023-01-20T09:38:23;6.28;;;5.47;;
56457;SDS011;42360;42.918;12.366;2023-01-20T09:55:12;4.38;;;3.33;;
56457;SDS011;42360;42.918;12.366;2023-01-20T09:57:46;2.70;;;2.33;;
56457;SDS011;42360;42.918;12.366;2023-01-20T10:00:16;3.70;;;3.40;;
56457;SDS011;42360;42.918;12.366;2023-01-20T10:02:43;4.13;;;3.13;;
56457;SDS011;42360;42.918;12.366;2023-01-20T10:05:12;3.20;;;2.75;;
56457;SDS011;42360;42.918;12.366;2023-01-20T10:07:52;3.15;;;2.33;;
56457;SDS011;42360;42.918;12.366;2023-01-20T10:10:22;2.50;;;2.30;;
56457;SDS011;42360;42.918;12.366;2023-01-20T10:12:54;5.95;;;3.58;;
56457;SDS011;42360;42.918;12.366;2023-01-20T10:15:28;3.22;;;2.78;;
56457;SDS011;42360;42.918;12.366;2023-01-20T10:18:06;3.20;;;2.20;;
56457;SDS011;42360;42.918;12.366;2023-01-20T10:20:41;2.65;;;1.90;;
56457;SDS011;42360;42.918;12.366;2023-01-20T10:25:51;2.15;;;1.95;;
56457;SDS011;42360;42.918;12.366;2023-01-20T10:30:48;2.60;;;2.40;;
56457;SDS011;42360;42.918;12.366;2023-01-20T10:33:15;4.85;;;2.83;;
56457;SDS011;42360;42.918;12.366;2023-01-20T10:35:49;2.50;;;2.28;;
56457;SDS011;42360;42.918;12.366;2023-01-20T10:38:18;2.47;;;2.20;;
56457;SDS011;42360;42.918;12.366;2023-01-20T10:40:51;2.40;;;1.80;;
56457;SDS011;42360;42.918;12.366;2023-01-20T10:43:19;2.63;;;1.85;;
56457;SDS011;42360;42.918;12.366;2023-01-20T10:48:49;5.45;;;3.25;;
56457;SDS011;42360;42.918;12.366;2023-01-20T10:56:47;3.92;;;2.30;;
56457;SDS011;42360;42.918;12.366;2023-01-20T10:59:28;4.30;;;2.70;;
56457;SDS011;42360;42.918;12.366;2023-01-20T11:02:01;3.72;;;2.25;;
56457;SDS011;42360;42.918;12.366;2023-01-20T11:04:29;4.07;;;2.40;;
56457;SDS011;42360;42.918;12.366;2023-01-20T11:06:56;3.80;;;1.80;;
56457;SDS011;42360;42.918;12.366;2023-01-20T11:09:33;2.20;;;1.90;;
56457;SDS011;42360;42.918;12.366;2023-01-20T11:12:02;3.70;;;2.47;;
56457;SDS011;42360;42.918;12.366;2023-01-20T11:14:28;3.75;;;2.40;;
56457;SDS011;42360;42.918;12.366;2023-01-20T11:16:57;4.10;;;2.10;;
56457;SDS011;42360;42.918;12.366;2023-01-20T11:19:25;3.88;;;2.10;;
56457;SDS011;42360;42.918;12.366;2023-01-20T11:21:50;2.15;;;1.95;;
56457;SDS011;42360;42.918;12.366;2023-01-20T11:27:10;3.53;;;2.70;;
56457;SDS011;42360;42.918;12.366;2023-01-20T11:29:41;2.53;;;2.33;;
56457;SDS011;42360;42.918;12.366;2023-01-20T11:35:19;5.57;;;1.90;;
56457;SDS011;42360;42.918;12.366;2023-01-20T11:37:47;2.28;;;2.05;;
56457;SDS011;42360;42.918;12.366;2023-01-20T11:40:21;1.40;;;1.30;;
56457;SDS011;42360;42.918;12.366;2023-01-20T11:42:49;1.38;;;1.05;;
56457;SDS011;42360;42.918;12.366;2023-01-20T11:45:26;1.92;;;1.17;;
56457;SDS011;42360;42.918;12.366;2023-01-20T11:50:37;1.40;;;1.27;;
56457;SDS011;42360;42.918;12.366;2023-01-20T11:53:37;3.78;;;2.00;;
56457;SDS011;42360;42.918;12.366;2023-01-20T11:56:02;3.78;;;2.00;;
56457;SDS011;42360;42.918;12.366;2023-01-20T11:58:52;2.10;;;1.75;;
56457;SDS011;42360;42.918;12.366;2023-01-20T12:07:02;2.37;;;1.70;;
56457;SDS011;42360;42.918;12.366;2023-01-20T12:09:35;2.00;;;1.70;;
56457;SDS011;42360;42.918;12.366;2023-01-20T12:15:09;2.17;;;1.85;;
56457;SDS011;42360;42.918;12.366;2023-01-20T12:20:22;1.33;;;1.20;;
56457;SDS011;42360;42.918;12.366;2023-01-20T12:25:36;3.65;;;1.92;;
56457;SDS011;42360;42.918;12.366;2023-01-20T12:28:14;5.53;;;2.55;;
56457;SDS011;42360;42.918;12.366;2023-01-20T12:30:46;2.42;;;1.83;;
56457;SDS011;42360;42.918;12.366;2023-01-20T12:33:26;6.25;;;2.80;;
56457;SDS011;42360;42.918;12.366;2023-01-20T12:35:59;3.15;;;2.13;;
56457;SDS011;42360;42.918;12.366;2023-01-20T12:38:37;2.28;;;1.80;;
56457;SDS011;42360;42.918;12.366;2023-01-20T12:41:12;2.50;;;1.70;;
56457;SDS011;42360;42.918;12.366;2023-01-20T12:47:04;3.92;;;2.35;;
56457;SDS011;42360;42.918;12.366;2023-01-20T13:00:38;1.30;;;1.20;;
56457;SDS011;42360;42.918;12.366;2023-01-20T13:11:19;8.63;;;4.45;;
56457;SDS011;42360;42.918;12.366;2023-01-20T13:14:13;3.22;;;2.40;;
56457;SDS011;42360;42.918;12.366;2023-01-20T13:16:49;1.50;;;1.25;;
56457;SDS011;42360;42.918;12.366;2023-01-20T13:22:01;1.95;;;1.73;;
56457;SDS011;42360;42.918;12.366;2023-01-20T13:24:35;1.60;;;1.50;;
56457;SDS011;42360;42.918;12.366;2023-01-20T13:27:00;1.20;;;0.90;;
56457;SDS011;42360;42.918;12.366;2023-01-20T13:32:01;0.95;;;0.95;;
56457;SDS011;42360;42.918;12.366;2023-01-20T13:41:57;4.85;;;1.30;;
56457;SDS011;42360;42.918;12.366;2023-01-20T13:46:59;1.40;;;1.20;;
56457;SDS011;42360;42.918;12.366;2023-01-20T13:49:26;1.52;;;1.10;;
56457;SDS011;42360;42.918;12.366;2023-01-20T13:51:53;2.08;;;1.00;;
56457;SDS011;42360;42.918;12.366;2023-01-20T13:56:49;1.33;;;0.90;;
56457;SDS011;42360;42.918;12.366;2023-01-20T13:59:15;2.85;;;1.10;;
56457;SDS011;42360;42.918;12.366;2023-01-20T14:01:41;1.95;;;1.40;;
56457;SDS011;42360;42.918;12.366;2023-01-20T14:04:13;1.25;;;1.02;;
56457;SDS011;42360;42.918;12.366;2023-01-20T14:06:50;2.25;;;1.20;;
56457;SDS011;42360;42.918;12.366;2023-01-20T14:09:19;2.97;;;1.27;;
56457;SDS011;42360;42.918;12.366;2023-01-20T14:11:48;3.88;;;1.50;;
56457;SDS011;42360;42.918;12.366;2023-01-20T14:14:18;4.80;;;1.60;;
56457;SDS011;42360;42.918;12.366;2023-01-20T14:16:45;2.20;;;1.08;;
56457;SDS011;42360;42.918;12.366;2023-01-20T14:19:33;4.38;;;1.20;;
56457;SDS011;42360;42.918;12.366;2023-01-20T14:21:59;3.15;;;1.25;;
56457;SDS011;42360;42.918;12.366;2023-01-20T14:24:43;2.47;;;1.50;;
56457;SDS011;42360;42.918;12.366;2023-01-20T14:27:26;2.20;;;1.30;;
56457;SDS011;42360;42.918;12.366;2023-01-20T14:29:57;2.30;;;1.40;;
56457;SDS011;42360;42.918;12.366;2023-01-20T14:32:36;3.17;;;1.20;;
56457;SDS011;42360;42.918;12.366;2023-01-20T14:35:03;3.65;;;1.30;;
56457;SDS011;42360;42.918;12.366;2023-01-20T14:37:36;1.65;;;1.08;;
56457;SDS011;42360;42.918;12.366;2023-01-20T14:42:34;0.88;;;0.60;;
56457;SDS011;42360;42.918;12.366;2023-01-20T14:45:15;0.77;;;0.75;;
56457;SDS011;42360;42.918;12.366;2023-01-20T14:47:42;1.60;;;0.80;;
56457;SDS011;42360;42.918;12.366;2023-01-20T14:50:11;0.90;;;0.55;;
56457;SDS011;42360;42.918;12.366;2023-01-20T14:52:38;0.93;;;0.80;;
56457;SDS011;42360;42.918;12.366;2023-01-20T14:55:04;3.17;;;2.22;;
56457;SDS011;42360;42.918;12.366;2023-01-20T14:57:33;3.17;;;1.90;;
56457;SDS011;42360;42.918;12.366;2023-01-20T15:05:55;2.10;;;1.90;;
56457;SDS011;42360;42.918;12.366;2023-01-20T15:08:25;2.33;;;1.33;;
56457;SDS011;42360;42.918;12.366;2023-01-20T15:11:30;2.28;;;1.67;;
56457;SDS011;42360;42.918;12.366;2023-01-20T15:16:31;3.47;;;3.22;;
56457;SDS011;42360;42.918;12.366;2023-01-20T15:21:43;1.90;;;1.25;;
56457;SDS011;42360;42.918;12.366;2023-01-20T15:24:20;2.05;;;1.85;;
56457;SDS011;42360;42.918;12.366;2023-01-20T15:26:55;4.95;;;3.00;;
56457;SDS011;42360;42.918;12.366;2023-01-20T15:29:32;3.42;;;2.60;;
56457;SDS011;42360;42.918;12.366;2023-01-20T15:32:05;3.92;;;2.35;;
56457;SDS011;42360;42.918;12.366;2023-01-20T15:34:34;1.58;;;1.20;;
56457;SDS011;42360;42.918;12.366;2023-01-20T15:37:00;4.18;;;3.72;;
56457;SDS011;42360;42.918;12.366;2023-01-20T15:39:26;2.55;;;1.27;;
56457;SDS011;42360;42.918;12.366;2023-01-20T15:41:54;1.75;;;1.00;;
56457;SDS011;42360;42.918;12.366;2023-01-20T15:44:21;0.73;;;0.70;;
56457;SDS011;42360;42.918;12.366;2023-01-20T15:46:51;1.63;;;0.73;;
56457;SDS011;42360;42.918;12.366;2023-01-20T15:49:17;2.03;;;0.70;;
56457;SDS011;42360;42.918;12.366;2023-01-20T15:51:43;1.17;;;0.90;;
56457;SDS011;42360;42.918;12.366;2023-01-20T15:54:09;1.35;;;1.17;;
56457;SDS011;42360;42.918;12.366;2023-01-20T15:56:36;1.25;;;1.13;;
56457;SDS011;42360;42.918;12.366;2023-01-20T15:59:11;1.33;;;1.10;;
56457;SDS011;42360;42.918;12.366;2023-01-20T16:01:37;1.38;;;1.05;;
56457;SDS011;42360;42.918;12.366;2023-01-20T16:04:03;1.23;;;0.90;;
56457;SDS011;42360;42.918;12.366;2023-01-20T16:06:29;1.63;;;0.75;;
56457;SDS011;42360;42.918;12.366;2023-01-20T16:08:56;1.00;;;0.90;;
56457;SDS011;42360;42.918;12.366;2023-01-20T16:11:22;1.67;;;1.00;;
56457;SDS011;42360;42.918;12.366;2023-01-20T16:13:48;1.58;;;0.80;;
56457;SDS011;42360;42.918;12.366;2023-01-20T16:16:20;1.15;;;0.80;;
56457;SDS011;42360;42.918;12.366;2023-01-20T16:18:47;2.75;;;0.93;;
56457;SDS011;42360;42.918;12.366;2023-01-20T16:21:13;1.08;;;0.98;;
56457;SDS011;42360;42.918;12.366;2023-01-20T16:23:40;2.80;;;1.27;;
56457;SDS011;42360;42.918;12.366;2023-01-20T16:26:20;2.03;;;1.63;;
56457;SDS011;42360;42.918;12.366;2023-01-20T16:28:53;2.17;;;1.08;;
56457;SDS011;42360;42.918;12.366;2023-01-20T16:31:20;0.90;;;0.82;;
56457;SDS011;42360;42.918;12.366;2023-01-20T16:33:46;1.17;;;1.00;;
56457;SDS011;42360;42.918;12.366;2023-01-20T16:36:12;0.60;;;0.60;;
56457;SDS011;42360;42.918;12.366;2023-01-20T16:38:39;1.52;;;0.70;;
56457;SDS011;42360;42.918;12.366;2023-01-20T16:41:06;1.33;;;0.90;;
56457;SDS011;42360;42.918;12.366;2023-01-20T16:43:40;0.65;;;0.60;;
56457;SDS011;42360;42.918;12.366;2023-01-20T16:46:13;2.53;;;1.17;;
56457;SDS011;42360;42.918;12.366;2023-01-20T16:48:43;0.65;;;0.65;;
56457;SDS011;42360;42.918;12.366;2023-01-20T16:51:12;0.80;;;0.80;;
56457;SDS011;42360;42.918;12.366;2023-01-20T16:53:42;1.00;;;0.90;;
56457;SDS011;42360;42.918;12.366;2023-01-20T16:56:17;0.65;;;0.65;;
56457;SDS011;42360;42.918;12.366;2023-01-20T16:58:49;0.98;;;0.80;;
56457;SDS011;42360;42.918;12.366;2023-01-20T17:01:16;1.67;;;0.90;;
56457;SDS011;42360;42.918;12.366;2023-01-20T17:03:46;0.80;;;0.80;;
56457;SDS011;42360;42.918;12.366;2023-01-20T17:06:13;1.10;;;0.80;;
56457;SDS011;42360;42.918;12.366;2023-01-20T17:08:43;1.10;;;1.00;;
56457;SDS011;42360;42.918;12.366;2023-01-20T17:11:10;1.10;;;1.00;;
56457;SDS011;42360;42.918;12.366;2023-01-20T17:13:40;1.17;;;1.08;;
56457;SDS011;42360;42.918;12.366;2023-01-20T17:16:06;2.15;;;1.45;;
56457;SDS011;42360;42.918;12.366;2023-01-20T17:18:31;1.98;;;1.42;;
56457;SDS011;42360;42.918;12.366;2023-01-20T17:21:02;3.30;;;2.17;;
56457;SDS011;42360;42.918;12.366;2023-01-20T17:23:30;1.73;;;1.45;;
56457;SDS011;42360;42.918;12.366;2023-01-20T17:25:57;1.70;;;1.55;;
56457;SDS011;42360;42.918;12.366;2023-01-20T17:28:22;1.58;;;1.38;;
56457;SDS011;42360;42.918;12.366;2023-01-20T17:30:48;1.27;;;1.17;;
56457;SDS011;42360;42.918;12.366;2023-01-20T17:33:14;1.20;;;1.10;;
56457;SDS011;42360;42.918;12.366;2023-01-20T17:35:39;1.70;;;1.60;;
56457;SDS011;42360;42.918;12.366;2023-01-20T17:38:05;1.70;;;1.60;;
56457;SDS011;42360;42.918;12.366;2023-01-20T17:40:30;1.40;;;1.20;;
56457;SDS011;42360;42.918;12.366;2023-01-20T17:42:56;2.63;;;1.40;;
56457;SDS011;42360;42.918;12.366;2023-01-20T17:45:21;3.45;;;1.30;;
56457;SDS011;42360;42.918;12.366;2023-01-20T17:47:50;1.55;;;1.40;;
56457;SDS011;42360;42.918;12.366;2023-01-20T17:50:16;1.88;;;1.40;;
56457;SDS011;42360;42.918;12.366;2023-01-20T17:52:42;1.92;;;1.75;;
56457;SDS011;42360;42.918;12.366;2023-01-20T17:55:08;3.88;;;2.15;;